Alton, Texas
Current Conditions -  °F | °C
As of 3:53 PM on Wednesday 28 Jan 2015 (Local Time) from KMFE Reporting Station
Clear Clear  
Wind Chill: 27°   Ceiling: Unl
Heat Index: 27°   Visibility: 10mi
Dew Point: 11°   Wind: 15mph
Humidity: 36%   Direction: 140°SE
Pressure: 30.1"   Gusts: 25mph
Location:  26.2155°N, 98.325°W
Report Text: KMFE 282153Z 14013G22KT 10SM CLR 27/11 A3010 RMK AO2 SLP191 T02670106
Loading
Personal Weather Stations






























Interactive Weather Map New forecast layout! Learn more

10-Day Weather Forecast

Advertisements
Track Severe Weather on mobile